NWS Home NWS Lubbock West Texas Mesonet South Sector Latest Conditions as of 1233 AM, Thu May 13, 2021

Latest   N   C   S   Daily Sum   3hrΔ   24hrΔ   Soil Data 
Site Map   24hr Precip   72hr Precip   Google Plot


Station Time of Last Temp Dew Pt. RH Wind Direction Wind Speed Wind Gust Max Wind Max Temp Min Temp Max RH Min RH Altimeter 1HR Rain Today's Rain Solar Rad Wind Chill
Andrews 2E  12:25 AM 56 48 73% E712 19 mph 100° @ 1215 AM 57 56 73 70 30.31" 0 0.00 0  
Aspermont 3NE  12:25 AM 51 50 97% SE33 7 mph 130° @ 1207 AM 52 51 97 96 30.33" 0 0.00 0  
Big Bend NP - Castolon  12:00 AM 68 51 54% W911 0 mph 0° @ 0600 PM 68 68 54 54 30.19" 0 0.00 0  
Big Bend NP - Persimmon Gap  12:25 AM 65 49 56% NE1924 24 mph 34° @ 1202 AM 65 65 56 55 30.25" 0 0.00 0  
Big Lake 1WNW  12:25 AM 55 49 80% E812 12 mph 65° @ 1210 AM 56 55 80 76 30.33" 0 0.00 0  
Brownfield 2S  12:25 AM 53 47 78% SE911 12 mph 116° @ 1209 AM 55 53 78 71 30.33" 0 0.00 0  
Clyde 2WNW  12:25 AM 56 52 86% SE45 8 mph 92° @ 1201 AM 56 56 87 84 30.34" 0 0.00 0  
Colorado City 5NW  12:25 AM 51 48 89% E77 8 mph 93° @ 1220 AM 52 51 89 88 30.34" 0 0.00 0  
Coyanosa 2N  12:25 AM 64 47 55% E915 19 mph 85° @ 1207 AM 65 64 55 53 30.27" 0 0.00 0  
Crane 1NNW   12:25 AM 59 48 69% E1721 29 mph 107° @ 1215 AM 60 59 69 67 30.30" 0 0.00 0  
Dell City  12:25 AM 54 48 80% E45 12 mph 128° @ 1201 AM 58 54 80 69 30.27" 0 0.00 0  
Denver City 7WNW  12:25 AM 55 46 75% SE1316 16 mph 115° @ 1225 AM 55 55 75 75 30.32" 0 0.00 0  
Doole 3WNW  12:25 AM 58 53 85% NE77 10 mph 45° @ 1205 AM 58 58 85 82 30.33" 0 0.00 0  
Fluvanna 3WNW  12:25 AM 51 46 84% SE711 11 mph 115° @ 1225 AM 51 50 85 83 30.33" 0 0.00 0  
Fort Chadbourne  12:25 AM 57 53 86% NE44 6 mph 59° @ 1212 AM 57 56 87 84 30.34" 0 0.00 0  
Fort Lancaster  12:25 AM 61 52 71% NE1013 16 mph 59° @ 1222 AM 62 61 71 70 30.30" 0 0.00 0  
Fort McKavett  12:25 AM 56 51 83% NE811 16 mph 33° @ 1205 AM 56 56 84 83 30.32" 0 0.00 0  
Gail 2ESE  12:25 AM 53 47 81% SE57 8 mph 129° @ 1223 AM 54 53 81 78 30.33" 0 0.00 0  
Graham 5SSW  12:25 AM 53 47 79% E810 14 mph 108° @ 1204 AM 54 53 79 76 30.33" 0 0.00 0  
Guadalupe Mtns Natl Park  12:25 AM 51 44 75% NE79 13 mph 12° @ 1207 AM 53 51 75 72 30.36" 0 0.00 0  
Haskell 1NW  12:25 AM 56 52 92% E33 4 mph 115° @ 1215 AM 56 56 92 91 30.33" 0 0.00 0  
Hobbs NM 5NW  12:25 AM 55 44 67% E1114 18 mph 112° @ 1220 AM 56 55 67 66 30.34" 0 0.00 0  
Jayton 1SSE  12:25 AM 52 49 94% SE67 7 mph 103° @ 1205 AM 52 52 94 93 30.34" 0 0.00 0  
Junction 1SSW  12:25 AM 58 52 79% NE712 14 mph 41° @ 1214 AM 58 58 80 78 30.32" 0 0.00 0  
Kent 9E  12:25 AM 58 49 73% SE1214 17 mph 147° @ 1208 AM 58 58 74 72 30.30" 0 0.00 0  
Lake Alan Henry 1NW  12:25 AM 52 49 87% E34 7 mph 111° @ 1205 AM 53 52 87 85 30.34" 0 0.00 0  
Lamesa 2SE  12:25 AM 54 47 78% SE1014 14 mph 114° @ 1225 AM 55 54 78 75 30.34" 0 0.00 0  
Lomax 1SSE  12:25 AM 55 47 77% E1011 12 mph 100° @ 1216 AM 55 55 77 75 30.32" 0 0.00 0  
McCamey 1SSW  12:25 AM 60 50 70% E1320 22 mph 72° @ 1203 AM 61 60 70 68 30.30" 0 0.00 0  
Menard 2NW   12:25 AM 57 52 82% NE56 9 mph 44° @ 1223 AM 57 57 83 81 30.33" 0 0.00 0  
Mertzon 3NNE  12:25 AM 57 50 77% NE811 12 mph 74° @ 1211 AM 58 57 77 75 30.33" 0 0.00 0  
New Home  12:25 AM 52 47 81% E911 14 mph 102° @ 1212 AM 53 52 81 76 30.35" 0 0.00 0  
O'Donnell 1N  12:25 AM 53 47 80% SE1114 16 mph 119° @ 1204 AM 54 53 80 77 30.34" 0 0.00 0  
Plains 3N  12:25 AM 54 46 74% SE1215 17 mph 115° @ 1205 AM 55 54 74 73 30.32" 0 0.00 0  
Post 1NE  12:25 AM 52 48 86% E57 8 mph 109° @ 1211 AM 53 52 86 82 30.34" 0 0.00 0  
Rotan 5W  12:25 AM 52 49 89% E55 8 mph 95° @ 1203 AM 53 52 89 88 30.34" 0 0.00 0  
San Angelo 7NW  12:25 AM 59 49 73% E912 12 mph 70° @ 1225 AM 59 59 73 73 30.33" 0 0.00 0  
Seagraves 1SW  12:25 AM 55 47 74% SE711 15 mph 112° @ 1207 AM 55 55 74 73 30.32" 0 0.00 0  
Segovia 7SSW  12:25 AM 56 50 79% NE1114 14 mph 30° @ 1208 AM 56 56 79 79 30.32" 0 0.00 0  
Seminole 2NNE  12:25 AM 55 47 77% SE1215 17 mph 112° @ 1210 AM 55 55 77 74 30.32" 0 0.00 0  
Sierra Blanca 1SSE  12:25 AM 56 48 75% E89 12 mph 122° @ 1211 AM 57 56 75 73 30.29" 0 0.00 0  
Snyder 3E  12:25 AM 51 47 89% E78 8 mph 101° @ 1220 AM 51 51 89 88 30.33" 0 0.00 0  
Snyder 3SSW  12:25 AM 50 48 93% E44 5 mph 93° @ 1206 AM 51 50 93 89 30.34" 0 0.00 0  
St. Lawrence 5SW  12:25 AM 55 48 76% E1012 15 mph 98° @ 1218 AM 56 55 76 75 30.32" 0 0.00 0  
Stamford 5ESE  12:25 AM 58 55 88% E22 6 mph 85° @ 1208 AM 59 58 88 83 30.34" 0 0.00 0  
Sterling City 4WSW  12:25 AM 51 47 85% E33 4 mph 88° @ 1215 AM 53 51 85 80 30.34" 0 0.00 0  
Sundown 8WSW  12:25 AM 51 43 74% SE78 10 mph 115° @ 1215 AM 53 51 74 70 30.33" 0 0.00 0  
Sweetwater 11SW   12:25 AM 49 47 93% E78 8 mph 92° @ 1223 AM 50 49 93 92 30.35" 0 0.00 0  
Tahoka 3NNE  12:25 AM 53 47 79% E1115 17 mph 103° @ 1224 AM 53 53 80 78 30.34" 0 0.00 0  
Tarzan 2WNW  12:25 AM 55 48 75% E1113 16 mph 107° @ 1222 AM 56 55 76 75 30.33" 0 0.00 0  
Tatum NM 2SW  12:25 AM 54 45 74% SE1114 16 mph 116° @ 1205 AM 55 54 74 72 30.33" 0 0.00 0  
Throckmorton 1SW  12:25 AM 58 55 90% E00 1 mph 111° @ 1209 AM 58 57 91 89 30.32" 0 0.00 0  
Van Horn 3ENE  12:25 AM 57 48 71% NE67 10 mph 12° @ 1216 AM 58 57 71 70 30.28" 0 0.00 0  
Wall 2E  12:25 AM 58 50 74% E911 13 mph 63° @ 1224 AM 59 58 75 74 30.34" 0 0.00 0  
Weinert 2NNE  12:25 AM 55 52 90% SE22 4 mph 112° @ 1210 AM 56 55 90 88 30.34" 0 0.00 0  
Welch  12:25 AM 53 48 83% SE1011 11 mph 123° @ 1224 AM 54 53 83 79 30.34" 0 0.00 0  

West Texas Mesonet Home   Site Map/Menu  NWS Lubbock Soil Data  Daily Summary Page  24hr Precip  72hr Precip  Google Plot